createdAt,value
2023-01-04T00:01:49.930Z,983.01
2023-01-04T00:07:21.590Z,982.83
2023-01-04T00:12:53.359Z,983.11
2023-01-04T00:18:24.994Z,983.33
2023-01-04T00:23:56.779Z,983.16
2023-01-04T00:29:29.396Z,982.57
2023-01-04T00:35:00.169Z,982.81
2023-01-04T00:40:31.836Z,982.54
2023-01-04T00:46:03.886Z,982.48
2023-01-04T00:51:35.690Z,982.5
2023-01-04T00:57:07.151Z,982.12
2023-01-04T01:02:44.294Z,982.44
2023-01-04T01:08:14.933Z,982.67
2023-01-04T01:13:46.739Z,982.4
2023-01-04T01:19:18.309Z,982.36
2023-01-04T01:24:49.885Z,982.72
2023-01-04T01:30:21.749Z,982.54
2023-01-04T01:35:54.245Z,982.51
2023-01-04T01:41:25.361Z,981.78
2023-01-04T01:46:57.350Z,981.55
2023-01-04T01:52:28.865Z,981.66
2023-01-04T01:58:00.537Z,981.47
2023-01-04T02:03:36.668Z,981.54
2023-01-04T02:09:08.146Z,981.37
2023-01-04T02:14:39.838Z,981.71
2023-01-04T02:20:11.598Z,981.54
2023-01-04T02:25:43.389Z,981.37
2023-01-04T02:31:15.618Z,981.62
2023-01-04T02:36:47.529Z,981.42
2023-01-04T02:42:18.859Z,981.43
2023-01-04T02:47:50.353Z,981.35
2023-01-04T02:53:22.001Z,981.22
2023-01-04T02:58:54.204Z,981.18
2023-01-04T03:04:30.147Z,981.22
2023-01-04T03:10:01.694Z,981.11
2023-01-04T03:15:33.460Z,981.28
2023-01-04T03:21:05.141Z,981.43
2023-01-04T03:26:36.943Z,981.58
2023-01-04T03:32:08.460Z,981.84
2023-01-04T03:37:40.244Z,982.21
2023-01-04T03:43:11.761Z,982.07
2023-01-04T03:48:43.587Z,981.98
2023-01-04T03:54:15.257Z,981.78
2023-01-04T03:59:46.936Z,981.86
2023-01-04T04:05:25.349Z,981.7
2023-01-04T04:10:56.850Z,981.76
2023-01-04T04:16:28.736Z,982.45
2023-01-04T04:22:00.597Z,982.4
2023-01-04T04:27:31.976Z,982.01
2023-01-04T04:33:04.019Z,982.52
2023-01-04T04:38:35.463Z,982.59
2023-01-04T04:44:07.389Z,982.87
2023-01-04T04:49:40.045Z,983.24
2023-01-04T04:55:10.891Z,983.79
2023-01-04T05:00:43.015Z,983.53
2023-01-04T05:06:18.811Z,983.91
2023-01-04T05:11:50.965Z,984.12
2023-01-04T05:17:22.028Z,984.33
2023-01-04T05:22:53.859Z,984.28
2023-01-04T05:28:26.280Z,984.68
2023-01-04T05:33:57.246Z,984.76
2023-01-04T05:39:28.902Z,985.06
2023-01-04T05:45:00.745Z,984.92
2023-01-04T05:50:32.223Z,985.12
2023-01-04T05:56:04.146Z,985.19
2023-01-04T06:01:36.160Z,985.5
2023-01-04T06:07:13.986Z,985.32
2023-01-04T06:12:45.573Z,985.62
2023-01-04T06:18:17.643Z,985.67
2023-01-04T06:23:48.972Z,985.61
2023-01-04T06:29:20.776Z,985.4
2023-01-04T06:34:52.632Z,985.64
2023-01-04T06:40:24.563Z,985.55
2023-01-04T06:45:56.163Z,985.76
2023-01-04T06:51:27.577Z,985.27
2023-01-04T06:56:59.381Z,985.35
2023-01-04T07:02:32.097Z,985.4
2023-01-04T07:08:09.384Z,985.37
2023-01-04T07:13:39.024Z,985.54
2023-01-04T07:19:11.034Z,985.5
2023-01-04T07:24:42.634Z,985.82
2023-01-04T07:30:14.193Z,985.77
2023-01-04T07:35:46.196Z,985.1
2023-01-04T07:41:17.699Z,985.47
2023-01-04T07:46:50.022Z,985.33
2023-01-04T07:52:21.425Z,984.75
2023-01-04T07:57:53.109Z,984.97
2023-01-04T08:03:24.813Z,985.22
2023-01-04T08:09:00.931Z,984.85
2023-01-04T08:14:32.859Z,985.09
2023-01-04T08:20:04.117Z,985.18
2023-01-04T08:25:36.249Z,985.16
2023-01-04T08:31:07.738Z,985.57
2023-01-04T08:36:39.147Z,985.23
2023-01-04T08:42:31.974Z,985.54
2023-01-04T08:47:42.739Z,985.48
2023-01-04T08:53:14.569Z,985.2
2023-01-04T08:58:45.963Z,985.25
2023-01-04T09:04:18.095Z,985.46
2023-01-04T09:09:54.049Z,985.45
2023-01-04T09:15:25.716Z,985.38
2023-01-04T09:20:57.538Z,985.63
2023-01-04T09:26:29.422Z,985.53
2023-01-04T09:32:01.083Z,985.62
2023-01-04T09:37:32.565Z,985.89
2023-01-04T09:43:22.940Z,985.49
2023-01-04T09:48:36.031Z,985.54
2023-01-04T09:54:08.077Z,986.03
2023-01-04T09:59:39.832Z,985.48
2023-01-04T10:05:12.108Z,985.57
2023-01-04T10:10:49.976Z,985.75
2023-01-04T10:17:14.614Z,986.0
2023-01-04T10:21:53.073Z,985.9
2023-01-04T10:27:24.391Z,985.84
2023-01-04T10:32:56.312Z,985.68
2023-01-04T10:38:27.799Z,985.82
2023-01-04T10:44:14.965Z,985.95
2023-01-04T10:49:31.385Z,985.98
2023-01-04T10:55:03.517Z,986.39
2023-01-04T11:00:34.767Z,986.2
2023-01-04T11:06:06.384Z,986.06
2023-01-04T11:11:42.639Z,986.46
2023-01-04T11:17:14.257Z,986.29
2023-01-04T11:22:46.181Z,986.31
2023-01-04T11:28:17.803Z,986.62
2023-01-04T11:33:49.731Z,986.39
2023-01-04T11:39:21.611Z,986.51
2023-01-04T11:44:53.243Z,986.16
2023-01-04T11:50:24.736Z,986.18
2023-01-04T11:55:56.482Z,986.16
2023-01-04T12:01:28.366Z,986.3
2023-01-04T12:07:00.112Z,985.74
2023-01-04T12:12:36.358Z,986.23
2023-01-04T12:18:07.906Z,986.43
2023-01-04T12:23:39.665Z,986.21
2023-01-04T12:29:11.521Z,986.24
2023-01-04T12:34:43.092Z,986.03
2023-01-04T12:40:15.089Z,985.99
2023-01-04T12:45:46.755Z,985.75
2023-01-04T12:51:34.487Z,986.05
2023-01-04T12:56:49.980Z,985.88
2023-01-04T13:02:22.870Z,985.76
2023-01-04T13:07:53.373Z,985.81
2023-01-04T13:13:31.504Z,985.75
2023-01-04T13:19:03.221Z,985.77
2023-01-04T13:24:36.154Z,986.18
2023-01-04T13:30:06.941Z,985.93
2023-01-04T13:35:38.610Z,986.36
2023-01-04T13:41:10.100Z,986.1
2023-01-04T13:46:42.261Z,986.0
2023-01-04T13:53:07.345Z,985.7
2023-01-04T13:57:45.691Z,985.69
2023-01-04T14:03:17.439Z,985.54
2023-01-04T14:08:48.893Z,985.67
2023-01-04T14:14:24.873Z,985.78
2023-01-04T14:19:56.977Z,985.7
2023-01-04T14:25:28.381Z,985.61
2023-01-04T14:31:00.383Z,985.51
2023-01-04T14:36:31.748Z,985.25
2023-01-04T14:42:03.405Z,985.24
2023-01-04T14:47:35.150Z,985.25
2023-01-04T14:53:07.061Z,985.49
2023-01-04T14:58:38.765Z,984.96
2023-01-04T15:04:10.431Z,984.9
2023-01-04T15:09:42.141Z,984.62
2023-01-04T15:15:18.313Z,984.84
2023-01-04T15:20:50.064Z,984.57
2023-01-04T15:26:21.587Z,984.64
2023-01-04T15:31:53.680Z,984.59
2023-01-04T15:37:25.413Z,984.38
2023-01-04T15:42:56.956Z,984.72
2023-01-04T15:48:28.623Z,984.63
2023-01-04T15:54:00.312Z,984.87
2023-01-04T15:59:31.877Z,984.5
2023-01-04T16:05:03.525Z,984.82
2023-01-04T16:10:35.638Z,984.61
2023-01-04T16:16:13.903Z,984.47
2023-01-04T16:21:45.416Z,984.58
2023-01-04T16:27:16.775Z,984.54
2023-01-04T16:32:48.579Z,984.58
2023-01-04T16:38:20.662Z,984.39
2023-01-04T16:43:52.178Z,984.33
2023-01-04T16:49:23.716Z,984.29
2023-01-04T16:54:55.507Z,984.11
2023-01-04T17:00:27.467Z,984.07
2023-01-04T17:05:59.169Z,984.23
2023-01-04T17:17:09.216Z,984.37
2023-01-04T17:22:40.627Z,984.1
2023-01-04T17:28:12.421Z,984.17
2023-01-04T17:33:43.993Z,984.03
2023-01-04T17:39:15.816Z,983.92
2023-01-04T17:44:48.366Z,983.91
2023-01-04T17:50:19.611Z,984.02
2023-01-04T17:55:51.180Z,983.86
2023-01-04T18:01:23.082Z,983.77
2023-01-04T18:06:54.619Z,983.71
2023-01-04T18:12:25.970Z,983.68
2023-01-04T18:18:02.749Z,983.75
2023-01-04T18:23:33.925Z,983.47
2023-01-04T18:29:05.452Z,983.55
2023-01-04T18:34:37.183Z,983.6
2023-01-04T18:40:08.964Z,983.44
2023-01-04T18:45:41.523Z,983.22
2023-01-04T18:51:12.303Z,983.72
2023-01-04T18:56:44.219Z,983.77
2023-01-04T19:02:16.911Z,983.91
2023-01-04T19:07:47.611Z,983.62
2023-01-04T19:13:19.307Z,983.47
2023-01-04T19:18:55.388Z,983.79
2023-01-04T19:24:27.140Z,983.47
2023-01-04T19:29:59.649Z,983.73
2023-01-04T19:35:30.897Z,983.92
2023-01-04T19:41:02.614Z,983.84
2023-01-04T19:46:34.452Z,983.79
2023-01-04T19:52:05.908Z,984.31
2023-01-04T19:57:37.767Z,983.86
2023-01-04T20:03:10.532Z,984.22
2023-01-04T20:08:41.168Z,984.4
2023-01-04T20:14:12.813Z,984.04
2023-01-04T20:19:50.967Z,984.18
2023-01-04T20:25:22.618Z,984.25
2023-01-04T20:30:54.426Z,984.4
2023-01-04T20:36:26.026Z,984.43
2023-01-04T20:41:57.867Z,984.46
2023-01-04T20:47:29.498Z,984.58
2023-01-04T20:53:01.473Z,984.68
2023-01-04T20:58:32.878Z,984.66
2023-01-04T21:04:04.741Z,984.82
2023-01-04T21:09:36.386Z,984.93
2023-01-04T21:15:08.483Z,985.22
2023-01-04T21:20:46.833Z,984.97
2023-01-04T21:26:17.914Z,985.03
2023-01-04T21:31:49.794Z,984.9
2023-01-04T21:37:21.607Z,984.96
2023-01-04T21:42:53.306Z,985.48
2023-01-04T21:48:24.947Z,985.06
2023-01-04T21:53:56.785Z,985.0
2023-01-04T21:59:28.281Z,985.16
2023-01-04T22:05:00.644Z,985.09
2023-01-04T22:10:31.943Z,984.86
2023-01-04T22:16:04.068Z,984.89
2023-01-04T22:21:39.805Z,984.78
2023-01-04T22:27:12.509Z,984.6
2023-01-04T22:32:43.197Z,984.62
2023-01-04T22:38:14.988Z,984.93
2023-01-04T22:43:46.681Z,985.17
2023-01-04T22:49:18.384Z,985.23
2023-01-04T22:54:49.999Z,984.68
2023-01-04T23:00:21.939Z,985.0
2023-01-04T23:05:54.218Z,984.88
2023-01-04T23:11:25.589Z,984.8
2023-01-04T23:16:58.252Z,984.61
2023-01-04T23:22:33.338Z,984.8
2023-01-04T23:28:04.904Z,984.48
2023-01-04T23:33:37.905Z,984.67
2023-01-04T23:39:08.065Z,984.35
2023-01-04T23:44:39.763Z,984.3
2023-01-04T23:50:12.056Z,984.26
2023-01-04T23:55:43.233Z,984.33
